createdAt,value
2022-09-27T00:01:28.012Z,34.71
2022-09-27T00:03:59.819Z,34.30
2022-09-27T00:06:32.691Z,33.95
2022-09-27T00:09:02.444Z,33.74
2022-09-27T00:11:41.460Z,33.68
2022-09-27T00:14:14.745Z,33.35
2022-09-27T00:16:45.899Z,32.98
2022-09-27T00:19:19.726Z,33.00
2022-09-27T00:21:51.042Z,32.81
2022-09-27T00:24:24.202Z,32.61
2022-09-27T00:26:53.473Z,32.55
2022-09-27T00:29:23.407Z,32.61
2022-09-27T00:31:52.728Z,32.82
2022-09-27T00:34:26.710Z,33.02
2022-09-27T00:36:58.421Z,33.49
2022-09-27T00:39:27.885Z,33.79
2022-09-27T00:41:57.612Z,33.92
2022-09-27T00:44:34.740Z,34.25
2022-09-27T00:47:34.504Z,34.58
2022-09-27T00:50:37.968Z,34.86
2022-09-27T00:53:19.357Z,35.26
2022-09-27T00:56:02.184Z,35.62
2022-09-27T00:58:41.224Z,35.71
2022-09-27T01:01:17.870Z,35.85
2022-09-27T01:04:10.387Z,36.07
2022-09-27T01:06:40.280Z,36.48
2022-09-27T01:09:13.075Z,37.00
2022-09-27T01:12:18.424Z,37.81
2022-09-27T01:15:33.123Z,38.87
2022-09-27T01:19:23.084Z,39.44
2022-09-27T01:22:05.473Z,40.66
2022-09-27T01:24:52.857Z,40.53
2022-09-27T01:27:30.556Z,40.07
2022-09-27T01:30:33.783Z,40.00
2022-09-27T01:33:27.482Z,40.25
2022-09-27T01:36:18.721Z,40.27
2022-09-27T01:39:23.523Z,40.65
2022-09-27T01:42:23.426Z,40.90
2022-09-27T01:45:14.690Z,41.15
2022-09-27T01:48:02.512Z,41.47
2022-09-27T01:50:46.109Z,41.73
2022-09-27T01:53:24.449Z,41.87
2022-09-27T01:55:57.299Z,42.14
2022-09-27T01:58:50.912Z,43.08
2022-09-27T02:01:24.444Z,43.76
2022-09-27T02:03:56.458Z,44.07
2022-09-27T02:06:45.574Z,44.15
2022-09-27T02:09:36.214Z,44.27
2022-09-27T02:12:13.017Z,44.25
2022-09-27T02:15:16.577Z,44.55
2022-09-27T02:18:07.649Z,45.41
2022-09-27T02:20:50.911Z,46.03
2022-09-27T02:23:45.780Z,46.14
2022-09-27T02:26:33.361Z,46.12
2022-09-27T02:29:25.407Z,46.34
2022-09-27T02:31:54.737Z,46.40
2022-09-27T02:34:32.674Z,46.62
2022-09-27T02:37:03.227Z,46.78
2022-09-27T02:39:32.924Z,46.75
2022-09-27T02:42:02.303Z,46.79
2022-09-27T02:44:32.344Z,47.03
2022-09-27T02:47:26.281Z,47.53
2022-09-27T02:49:55.464Z,48.03
2022-09-27T02:53:10.729Z,48.35
2022-09-27T02:56:23.447Z,48.81
2022-09-27T02:59:40.040Z,49.20
2022-09-27T03:02:30.803Z,49.50
2022-09-27T03:05:09.780Z,49.38
2022-09-27T03:07:40.894Z,49.27
2022-09-27T03:10:19.822Z,48.98
2022-09-27T03:12:49.328Z,49.07
2022-09-27T03:15:19.178Z,49.27
2022-09-27T03:17:49.001Z,49.87
2022-09-27T03:20:19.092Z,50.33
2022-09-27T03:22:48.814Z,50.47
2022-09-27T03:25:18.305Z,50.58
2022-09-27T03:27:47.942Z,50.78
2022-09-27T03:30:17.654Z,50.92
2022-09-27T03:32:48.068Z,51.03
2022-09-27T03:35:17.333Z,51.17
2022-09-27T03:37:48.303Z,51.27
2022-09-27T03:40:17.752Z,51.48
2022-09-27T03:42:53.306Z,51.72
2022-09-27T03:45:24.211Z,52.08
2022-09-27T03:47:53.559Z,52.40
2022-09-27T03:50:23.361Z,52.64
2022-09-27T03:52:52.764Z,52.74
2022-09-27T03:55:22.190Z,52.79
2022-09-27T03:57:51.392Z,52.92
2022-09-27T04:00:21.172Z,53.15
2022-09-27T04:02:50.831Z,53.35
2022-09-27T04:05:20.831Z,53.45
2022-09-27T04:07:53.553Z,53.82
2022-09-27T04:10:22.922Z,53.95
2022-09-27T04:12:52.630Z,53.91
2022-09-27T04:15:22.488Z,53.88
2022-09-27T04:17:53.349Z,53.94
2022-09-27T04:20:22.722Z,54.10
2022-09-27T04:22:52.395Z,54.13
2022-09-27T04:25:22.002Z,54.29
2022-09-27T04:27:56.467Z,54.46
2022-09-27T04:30:27.437Z,54.86
2022-09-27T04:32:56.999Z,54.91
2022-09-27T04:35:45.061Z,54.87
2022-09-27T04:38:15.488Z,54.95
2022-09-27T04:40:45.511Z,55.03
2022-09-27T04:43:14.772Z,55.12
2022-09-27T04:45:46.509Z,55.41
2022-09-27T04:48:15.910Z,55.72
2022-09-27T04:50:45.121Z,56.05
2022-09-27T04:53:18.335Z,56.29
2022-09-27T04:55:51.056Z,56.33
2022-09-27T04:58:20.400Z,56.33
2022-09-27T05:00:53.312Z,56.44
2022-09-27T05:03:23.048Z,56.62
2022-09-27T05:05:52.378Z,56.63
2022-09-27T05:08:22.179Z,56.68
2022-09-27T05:10:51.636Z,56.72
2022-09-27T05:13:21.034Z,56.67
2022-09-27T05:15:51.002Z,56.76
2022-09-27T05:18:20.509Z,56.80
2022-09-27T05:20:50.084Z,56.93
2022-09-27T05:23:19.144Z,56.99
2022-09-27T05:25:48.424Z,57.00
2022-09-27T05:28:17.704Z,56.94
2022-09-27T05:30:47.118Z,56.83
2022-09-27T05:33:16.335Z,56.82
2022-09-27T05:35:46.053Z,57.00
2022-09-27T05:38:15.513Z,57.14
2022-09-27T05:40:46.559Z,57.05
2022-09-27T05:43:17.036Z,56.97
2022-09-27T05:45:46.727Z,56.89
2022-09-27T05:48:16.429Z,56.89
2022-09-27T05:50:45.888Z,56.84
2022-09-27T05:53:15.548Z,56.77
2022-09-27T05:55:44.820Z,56.80
2022-09-27T05:58:17.280Z,56.84
2022-09-27T06:00:46.812Z,56.88
2022-09-27T06:03:16.148Z,56.77
2022-09-27T06:05:50.469Z,56.89
2022-09-27T06:08:23.442Z,57.15
2022-09-27T06:10:54.076Z,57.83
2022-09-27T06:13:23.341Z,58.38
2022-09-27T06:15:55.227Z,58.70
2022-09-27T06:18:25.179Z,58.89
2022-09-27T06:20:54.399Z,58.99
2022-09-27T06:23:25.244Z,59.10
2022-09-27T06:25:55.943Z,59.21
2022-09-27T06:28:25.151Z,59.24
2022-09-27T06:30:54.524Z,59.40
2022-09-27T06:33:24.142Z,59.52
2022-09-27T06:35:54.592Z,59.66
2022-09-27T06:38:24.408Z,59.74
2022-09-27T06:40:53.959Z,59.84
2022-09-27T06:43:23.974Z,60.10
2022-09-27T06:45:53.039Z,60.23
2022-09-27T06:48:23.467Z,60.26
2022-09-27T06:50:52.737Z,60.29
2022-09-27T06:53:22.271Z,60.34
2022-09-27T06:55:52.366Z,60.38
2022-09-27T06:58:39.752Z,60.34
2022-09-27T07:01:09.168Z,60.45
2022-09-27T07:03:42.589Z,60.45
2022-09-27T07:06:27.727Z,60.47
2022-09-27T07:08:57.297Z,60.57
2022-09-27T07:11:27.153Z,60.56
2022-09-27T07:13:57.658Z,60.59
2022-09-27T07:16:27.279Z,60.60
2022-09-27T07:18:56.666Z,60.67
2022-09-27T07:21:26.482Z,60.63
2022-09-27T07:23:55.761Z,60.53
2022-09-27T07:26:25.147Z,60.50
2022-09-27T07:28:55.054Z,60.48
2022-09-27T07:31:25.321Z,60.48
2022-09-27T07:33:54.681Z,60.52
2022-09-27T07:36:24.858Z,60.65
2022-09-27T07:38:54.470Z,60.75
2022-09-27T07:41:23.640Z,60.85
2022-09-27T07:43:53.026Z,60.88
2022-09-27T07:46:22.729Z,60.97
2022-09-27T07:48:54.162Z,61.30
2022-09-27T07:51:24.025Z,61.98
2022-09-27T07:53:53.593Z,62.47
2022-09-27T07:56:22.889Z,63.47
2022-09-27T07:58:52.226Z,64.39
2022-09-27T08:01:21.930Z,64.45
2022-09-27T08:03:51.088Z,64.79
2022-09-27T08:06:21.133Z,64.70
2022-09-27T08:08:50.514Z,64.58
2022-09-27T08:11:21.257Z,64.37
2022-09-27T08:13:53.441Z,64.36
2022-09-27T08:16:23.129Z,64.16
2022-09-27T08:18:52.531Z,64.25
2022-09-27T08:21:21.893Z,64.66
2022-09-27T08:23:51.210Z,64.99
2022-09-27T08:26:21.205Z,65.30
2022-09-27T08:28:51.059Z,65.43
2022-09-27T08:31:20.673Z,65.75
2022-09-27T08:33:54.276Z,66.27
2022-09-27T08:36:24.121Z,66.44
2022-09-27T08:38:55.503Z,66.53
2022-09-27T08:41:30.471Z,66.54
2022-09-27T08:44:34.559Z,66.53
2022-09-27T08:47:19.232Z,66.73
2022-09-27T08:50:12.948Z,66.94
2022-09-27T08:52:55.307Z,67.13
2022-09-27T08:56:01.552Z,67.47
2022-09-27T08:58:35.153Z,67.82
2022-09-27T09:01:08.800Z,67.95
2022-09-27T09:03:51.365Z,68.17
2022-09-27T09:06:38.165Z,68.25
2022-09-27T09:09:30.982Z,68.27
2022-09-27T09:12:43.878Z,68.34
2022-09-27T09:15:57.404Z,68.43
2022-09-27T09:18:26.883Z,68.46
2022-09-27T09:21:44.328Z,68.54
2022-09-27T09:24:37.968Z,68.75
2022-09-27T09:27:32.516Z,68.84
2022-09-27T09:30:50.596Z,68.85
2022-09-27T09:33:33.879Z,69.02
2022-09-27T09:36:42.773Z,69.00
2022-09-27T09:39:25.846Z,69.18
2022-09-27T09:42:03.267Z,69.23
2022-09-27T09:45:17.314Z,69.03
2022-09-27T09:48:04.499Z,69.01
2022-09-27T09:50:43.508Z,69.04
2022-09-27T09:53:47.770Z,69.03
2022-09-27T09:56:24.651Z,69.18
2022-09-27T09:59:05.311Z,69.36
2022-09-27T10:01:57.247Z,69.49
2022-09-27T10:04:30.260Z,69.49
2022-09-27T10:07:02.152Z,69.56
2022-09-27T10:09:31.765Z,69.68
2022-09-27T10:12:01.597Z,69.98
2022-09-27T10:14:31.449Z,70.14
2022-09-27T10:17:06.437Z,70.17
2022-09-27T10:19:40.761Z,70.23
2022-09-27T10:22:21.481Z,70.30
2022-09-27T10:25:04.319Z,70.34
2022-09-27T10:27:49.145Z,70.40
2022-09-27T10:30:36.243Z,70.44
2022-09-27T10:33:21.186Z,70.65
2022-09-27T10:35:52.024Z,70.58
2022-09-27T10:38:23.314Z,70.42
2022-09-27T10:40:59.727Z,70.37
2022-09-27T10:43:34.736Z,70.21
2022-09-27T10:46:23.920Z,70.35
2022-09-27T10:49:29.792Z,70.38
2022-09-27T10:52:10.508Z,70.68
2022-09-27T10:54:43.702Z,70.85
2022-09-27T10:57:27.259Z,70.90
2022-09-27T11:00:24.140Z,71.19
2022-09-27T11:03:07.114Z,71.23
2022-09-27T11:05:41.376Z,71.24
2022-09-27T11:08:27.788Z,71.18
2022-09-27T11:11:25.331Z,71.10
2022-09-27T11:14:09.184Z,71.11
2022-09-27T11:17:01.999Z,71.19
2022-09-27T11:20:04.571Z,71.36
2022-09-27T11:23:22.723Z,71.40
2022-09-27T11:26:34.727Z,71.55
2022-09-27T11:29:27.677Z,71.70
2022-09-27T11:32:13.654Z,71.81
2022-09-27T11:35:27.738Z,71.75
2022-09-27T11:38:54.012Z,71.63
2022-09-27T11:41:55.387Z,71.59
2022-09-27T11:45:13.299Z,71.68
2022-09-27T11:48:20.822Z,71.70
2022-09-27T11:51:05.490Z,71.80
2022-09-27T11:54:12.566Z,71.86
2022-09-27T11:57:14.141Z,71.97
2022-09-27T11:59:58.318Z,72.12
2022-09-27T12:03:12.099Z,72.21
2022-09-27T12:06:06.996Z,72.37
2022-09-27T12:09:07.237Z,72.59
2022-09-27T12:11:45.392Z,72.74
2022-09-27T12:14:41.396Z,72.86
2022-09-27T12:17:36.381Z,73.06
2022-09-27T12:20:23.627Z,73.00
2022-09-27T12:23:36.381Z,72.93
2022-09-27T12:26:13.997Z,73.02
2022-09-27T12:29:03.746Z,72.99
2022-09-27T12:31:55.645Z,72.90
2022-09-27T12:34:31.615Z,72.82
2022-09-27T12:37:44.824Z,72.78
2022-09-27T12:40:36.157Z,72.80
2022-09-27T12:43:25.330Z,72.76
2022-09-27T12:46:06.344Z,72.64
2022-09-27T12:48:54.064Z,72.70
2022-09-27T12:51:25.547Z,72.75
2022-09-27T12:54:14.339Z,72.98
2022-09-27T12:57:20.235Z,73.01
2022-09-27T13:00:07.686Z,72.92
2022-09-27T13:03:26.340Z,72.96
2022-09-27T13:06:41.780Z,73.09
2022-09-27T13:09:26.732Z,73.24
2022-09-27T13:12:15.688Z,73.50
2022-09-27T13:15:08.331Z,73.51
2022-09-27T13:17:45.271Z,73.42
2022-09-27T13:20:47.423Z,73.59
2022-09-27T13:23:23.009Z,73.72
2022-09-27T13:26:00.813Z,73.92
2022-09-27T13:28:39.251Z,74.01
2022-09-27T13:31:16.515Z,74.08
2022-09-27T13:33:55.982Z,74.11
2022-09-27T13:36:33.422Z,74.22
2022-09-27T13:39:07.165Z,74.18
2022-09-27T13:41:49.610Z,74.16
2022-09-27T13:55:45.856Z,74.11
2022-09-27T13:58:44.214Z,74.00
2022-09-27T14:01:32.902Z,73.97
2022-09-27T14:04:37.051Z,74.00
2022-09-27T14:07:06.483Z,74.06
2022-09-27T14:09:41.063Z,74.10
2022-09-27T14:12:35.121Z,74.12
2022-09-27T14:15:06.258Z,74.13
2022-09-27T14:17:35.102Z,74.20
2022-09-27T14:20:07.771Z,74.16
2022-09-27T14:22:39.088Z,74.10
2022-09-27T14:25:20.809Z,74.04
2022-09-27T14:27:49.280Z,74.00
2022-09-27T14:30:22.286Z,74.00
2022-09-27T14:32:58.803Z,73.98
2022-09-27T14:35:50.399Z,74.02
2022-09-27T14:38:38.982Z,74.07
2022-09-27T14:41:10.854Z,74.22
2022-09-27T14:43:46.940Z,74.28
2022-09-27T14:46:33.067Z,74.28
2022-09-27T14:49:23.699Z,74.27
2022-09-27T14:51:56.525Z,74.25
2022-09-27T14:54:30.857Z,74.20
2022-09-27T14:57:00.620Z,74.18
2022-09-27T14:59:38.222Z,74.11
2022-09-27T15:02:22.590Z,74.12
2022-09-27T15:04:52.529Z,74.10
2022-09-27T15:07:22.898Z,74.10
2022-09-27T15:09:52.256Z,74.05
2022-09-27T15:12:26.943Z,73.93
2022-09-27T15:14:58.674Z,73.79
2022-09-27T15:17:27.149Z,73.60
2022-09-27T15:20:25.453Z,73.66
2022-09-27T15:22:54.399Z,73.60
2022-09-27T15:25:42.980Z,73.55
2022-09-27T15:28:19.702Z,73.55
2022-09-27T15:31:08.319Z,73.54
2022-09-27T15:33:37.570Z,73.53
2022-09-27T15:36:10.751Z,73.60
2022-09-27T15:38:48.088Z,73.60
2022-09-27T15:41:21.564Z,73.55
2022-09-27T15:43:54.076Z,73.37
2022-09-27T15:46:42.023Z,73.19
2022-09-27T15:49:33.988Z,73.25
2022-09-27T15:52:05.611Z,73.08
2022-09-27T15:54:36.185Z,72.90
2022-09-27T15:57:11.390Z,72.74
2022-09-27T15:59:40.419Z,72.65
2022-09-27T16:02:19.474Z,72.34
2022-09-27T16:04:50.733Z,72.13
2022-09-27T16:07:19.588Z,71.84
2022-09-27T16:09:51.348Z,71.60
2022-09-27T16:12:19.998Z,71.21
2022-09-27T16:14:48.793Z,70.98
2022-09-27T16:17:18.418Z,70.72
2022-09-27T16:19:47.563Z,70.42
2022-09-27T16:22:16.284Z,70.32
2022-09-27T16:24:44.749Z,70.02
2022-09-27T16:27:13.768Z,69.58
2022-09-27T16:29:44.506Z,69.60
2022-09-27T16:32:13.576Z,69.23
2022-09-27T16:34:42.166Z,69.15
2022-09-27T16:37:11.489Z,69.17
2022-09-27T16:39:43.587Z,69.07
2022-09-27T16:42:12.624Z,69.07
2022-09-27T16:44:41.078Z,68.77
2022-09-27T16:47:11.118Z,68.54
2022-09-27T16:49:58.394Z,68.16
2022-09-27T16:52:27.653Z,68.04
2022-09-27T16:54:56.329Z,68.04
2022-09-27T16:57:25.221Z,68.00
2022-09-27T16:59:54.156Z,67.70
2022-09-27T17:02:24.403Z,67.45
2022-09-27T17:04:54.044Z,66.91
2022-09-27T17:07:23.154Z,66.70
2022-09-27T17:09:51.519Z,65.95
2022-09-27T17:12:21.820Z,65.35
2022-09-27T17:14:50.734Z,64.99
2022-09-27T17:17:19.919Z,64.61
2022-09-27T17:19:49.233Z,64.44
2022-09-27T17:22:17.828Z,63.70
2022-09-27T17:24:46.605Z,63.29
2022-09-27T17:27:15.166Z,63.15
2022-09-27T17:29:43.713Z,62.76
2022-09-27T17:32:13.957Z,62.08
2022-09-27T17:34:44.604Z,61.72
2022-09-27T17:37:13.000Z,61.45
2022-09-27T17:39:42.341Z,61.20
2022-09-27T17:42:12.092Z,60.66
2022-09-27T17:44:40.599Z,60.53
2022-09-27T17:47:27.302Z,60.25
2022-09-27T17:50:14.199Z,59.90
2022-09-27T17:52:42.909Z,59.78
2022-09-27T17:55:12.046Z,59.31
2022-09-27T17:57:40.825Z,58.78
2022-09-27T18:00:10.417Z,58.26
2022-09-27T18:02:38.946Z,57.81
2022-09-27T18:05:08.196Z,57.45
2022-09-27T18:07:37.778Z,57.43
2022-09-27T18:10:07.122Z,57.24
2022-09-27T18:12:35.792Z,56.90
2022-09-27T18:15:04.911Z,56.76
2022-09-27T18:17:34.193Z,56.13
2022-09-27T18:20:02.738Z,55.57
2022-09-27T18:22:31.683Z,55.41
2022-09-27T18:25:01.556Z,54.84
2022-09-27T18:27:30.817Z,54.25
2022-09-27T18:30:00.638Z,53.40
2022-09-27T18:32:29.261Z,52.33
2022-09-27T18:34:57.746Z,51.46
2022-09-27T18:37:27.339Z,50.94
2022-09-27T18:39:56.193Z,50.47
2022-09-27T18:42:24.815Z,49.80
2022-09-27T18:44:53.382Z,49.19
2022-09-27T18:47:21.983Z,49.00
2022-09-27T18:49:50.476Z,48.38
2022-09-27T18:52:19.047Z,48.14
2022-09-27T18:54:47.795Z,47.77
2022-09-27T18:57:16.515Z,47.30
2022-09-27T18:59:48.509Z,47.10
2022-09-27T19:02:16.953Z,46.81
2022-09-27T19:04:45.621Z,46.12
2022-09-27T19:07:14.330Z,45.54
2022-09-27T19:09:43.039Z,44.46
2022-09-27T19:12:11.746Z,44.27
2022-09-27T19:14:40.288Z,44.66
2022-09-27T19:17:08.803Z,44.17
2022-09-27T19:19:37.120Z,43.97
2022-09-27T19:22:06.006Z,43.83
2022-09-27T19:24:34.493Z,43.43
2022-09-27T19:27:02.905Z,43.21
2022-09-27T19:29:31.669Z,43.19
2022-09-27T19:32:00.132Z,41.74
2022-09-27T19:34:28.715Z,39.54
2022-09-27T19:36:57.274Z,39.00
2022-09-27T19:39:26.076Z,38.04
2022-09-27T19:41:54.687Z,37.35
2022-09-27T19:44:23.165Z,37.57
2022-09-27T19:46:52.347Z,37.58
2022-09-27T19:49:21.173Z,36.91
2022-09-27T19:51:53.229Z,36.65
2022-09-27T19:54:21.901Z,36.06
2022-09-27T19:56:50.916Z,35.26
2022-09-27T19:59:19.856Z,34.87
2022-09-27T20:01:49.389Z,34.84
2022-09-27T20:04:18.351Z,34.97
2022-09-27T20:06:47.949Z,34.80
2022-09-27T20:09:16.441Z,34.43
2022-09-27T20:11:45.850Z,34.03
2022-09-27T20:14:14.529Z,33.58
2022-09-27T20:16:43.441Z,32.91
2022-09-27T20:19:12.413Z,32.42
2022-09-27T20:21:58.803Z,32.85
2022-09-27T20:24:27.660Z,32.33
2022-09-27T20:26:56.218Z,31.65
2022-09-27T20:29:24.464Z,31.67
2022-09-27T20:32:22.488Z,31.49
2022-09-27T20:34:41.965Z,30.98
2022-09-27T20:37:10.739Z,31.03
2022-09-27T20:39:40.230Z,30.58
2022-09-27T20:42:09.358Z,30.32
2022-09-27T20:44:38.482Z,30.83
2022-09-27T20:47:07.360Z,30.83
2022-09-27T20:49:36.117Z,30.33
2022-09-27T20:52:04.948Z,30.22
2022-09-27T20:54:34.292Z,29.53
2022-09-27T20:57:02.874Z,29.29
2022-09-27T20:59:31.295Z,28.80
2022-09-27T21:01:59.831Z,28.81
2022-09-27T21:04:30.659Z,29.10
2022-09-27T21:06:59.550Z,28.40
2022-09-27T21:09:28.289Z,28.83
2022-09-27T21:11:57.137Z,28.64
2022-09-27T21:14:25.472Z,28.58
2022-09-27T21:16:54.170Z,28.57
2022-09-27T21:19:22.873Z,28.20
2022-09-27T21:21:53.071Z,28.45
2022-09-27T21:24:21.737Z,28.29
2022-09-27T21:26:50.303Z,27.91
2022-09-27T21:29:19.140Z,27.57
2022-09-27T21:31:47.724Z,27.24
2022-09-27T21:34:16.557Z,27.37
2022-09-27T21:36:44.936Z,27.22
2022-09-27T21:39:15.751Z,27.39
2022-09-27T21:41:47.320Z,27.03
2022-09-27T21:44:17.235Z,26.70
2022-09-27T21:46:46.723Z,26.32
2022-09-27T21:49:15.193Z,25.96
2022-09-27T21:51:44.851Z,26.25
2022-09-27T21:54:17.255Z,26.36
2022-09-27T21:56:46.811Z,25.93
2022-09-27T21:59:18.636Z,26.32
2022-09-27T22:01:50.202Z,25.92
2022-09-27T22:04:18.765Z,25.89
2022-09-27T22:06:47.670Z,25.94
2022-09-27T22:09:17.814Z,26.14
2022-09-27T22:11:47.984Z,26.14
2022-09-27T22:14:20.148Z,25.65
2022-09-27T22:16:49.499Z,25.55
2022-09-27T22:19:18.756Z,25.61
2022-09-27T22:21:54.357Z,25.44
2022-09-27T22:24:23.680Z,25.40
2022-09-27T22:27:03.475Z,25.43
2022-09-27T22:29:37.689Z,25.50
2022-09-27T22:32:06.535Z,25.58
2022-09-27T22:34:35.153Z,25.47
2022-09-27T22:37:03.945Z,25.02
2022-09-27T22:39:32.491Z,25.11
2022-09-27T22:42:00.969Z,25.47
2022-09-27T22:44:31.455Z,24.86
2022-09-27T22:47:00.172Z,24.80
2022-09-27T22:49:28.748Z,24.58
2022-09-27T22:51:57.171Z,24.50
2022-09-27T22:54:25.837Z,24.29
2022-09-27T22:56:57.620Z,24.51
2022-09-27T22:59:36.265Z,24.40
2022-09-27T23:02:04.788Z,24.50
2022-09-27T23:04:33.470Z,24.77
2022-09-27T23:07:02.217Z,24.78
2022-09-27T23:09:30.843Z,24.85
2022-09-27T23:11:59.249Z,24.76
2022-09-27T23:14:27.768Z,24.50
2022-09-27T23:16:56.390Z,24.97
2022-09-27T23:19:27.262Z,25.69
2022-09-27T23:21:56.296Z,25.07
2022-09-27T23:24:24.863Z,25.03
2022-09-27T23:27:13.451Z,24.97
2022-09-27T23:29:42.045Z,25.06
2022-09-27T23:32:10.622Z,25.43
2022-09-27T23:34:39.460Z,25.46
2022-09-27T23:37:08.926Z,25.05
2022-09-27T23:39:37.870Z,25.38
2022-09-27T23:42:07.262Z,25.56
2022-09-27T23:44:36.178Z,25.67
2022-09-27T23:47:08.067Z,25.53
2022-09-27T23:49:37.437Z,25.54
2022-09-27T23:52:07.180Z,25.43
2022-09-27T23:54:35.733Z,25.43
2022-09-27T23:57:04.622Z,25.58
2022-09-27T23:59:33.696Z,25.89
